Latest Weather Observations for Portland Harbour

IDV60801

Issued at 3:31 pm EST Tuesday 28 July 2015 (issued every 30 minutes, with the page automatically refreshed every 10 minutes)

About weather observations | Map of weather stations | Latest weather observations for VIC | Other Formats
Station Details ID: 090192 Name: PORTLAND NTC AWS Lat: -38.34 Lon: 141.61 Height: 0.0 m
Data from the previous 72 hours. | See also: Recent months for locations in Victoria
Date/Time
EST
Temp
°C
App
Temp
°C
Dew
Point
Rel
Hum
%
Delta-T
°C
Wind Press
QNH
hPa
Press
MSL
hPa
Rain
since 9 am
mm
Dir
 
Spd
km/h
Gust
km/h
Spd
kts
Gust
kts
28/03:30pm 11.8 - - - - W 11 17 6 9 1033.1 1033.1 -
28/03:00pm 11.9 - - - - W 11 15 6 8 1033.0 1033.0 -
28/02:30pm 11.0 - - - - W 13 20 7 11 1033.0 1033.0 -
28/02:00pm 11.7 - - - - WNW 15 22 8 12 1033.1 1033.1 -
28/01:30pm 10.9 - - - - WSW 15 26 8 14 1033.5 1033.5 -
28/01:00pm 11.2 - - - - WSW 13 20 7 11 1033.9 1033.9 -
28/12:30pm 10.7 - - - - WNW 15 26 8 14 1034.2 1034.2 -
28/12:00pm 10.7 - - - - NNW 13 19 7 10 1034.7 1034.7 -
28/11:30am 10.0 - - - - NNW 13 19 7 10 1035.2 1035.2 -
28/11:00am 9.7 - - - - NNW 13 19 7 10 1035.4 1035.4 -
28/10:30am 9.3 - - - - NNW 13 17 7 9 1035.1 1035.1 -
28/10:00am 8.7 - - - - NW 11 15 6 8 1035.0 1035.0 -
28/09:30am 8.4 - - - - NW 15 22 8 12 1034.8 1034.8 -
28/09:00am 8.0 - - - - NW 11 17 6 9 1034.8 1034.8 -
28/08:30am 7.5 - - - - NW 13 20 7 11 1034.8 1034.8 -
28/08:00am 7.1 - - - - WNW 7 11 4 6 1034.7 1034.7 -
28/07:30am 6.9 - - - - WNW 7 13 4 7 1034.4 1034.4 -
28/07:00am 7.2 - - - - WSW 7 9 4 5 1034.0 1034.0 -
28/06:30am 7.2 - - - - WNW 9 13 5 7 1033.5 1033.5 -
28/06:00am 7.5 - - - - WNW 9 13 5 7 1033.1 1033.1 -
28/05:30am 7.8 - - - - WNW 6 9 3 5 1032.8 1032.8 -
28/05:00am 8.6 - - - - WNW 7 13 4 7 1032.7 1032.7 -
28/04:30am 9.0 - - - - WNW 13 19 7 10 1032.6 1032.6 -
28/04:00am 9.0 - - - - WNW 7 9 4 5 1032.6 1032.6 -
28/03:30am 9.3 - - - - NW 9 13 5 7 1032.8 1032.8 -
28/03:00am 9.6 - - - - NW 9 13 5 7 1032.9 1032.9 -
28/02:30am 9.4 - - - - WNW 9 11 5 6 1033.0 1033.0 -
28/02:00am 9.5 - - - - WNW 9 13 5 7 1032.7 1032.7 -
28/01:30am 10.1 - - - - NW 11 15 6 8 1032.3 1032.3 -
28/01:00am 10.2 - - - - W 6 7 3 4 1032.4 1032.4 -
28/12:30am 10.0 - - - - WSW 15 26 8 14 1032.4 1032.4 -
28/12:00am 10.4 - - - - WSW 13 20 7 11 1032.3 1032.3 -
 
Date/Time
EST
Temp
°C
App
Temp
°C
Dew
Point
Rel
Hum
%
Delta-T
°C
Wind Press
QNH
hPa
Press
MSL
hPa
Rain
since 9 am
mm
Dir
 
Spd
km/h
Gust
km/h
Spd
kts
Gust
kts
27/11:30pm 10.2 - - - - WNW 9 13 5 7 1032.1 1032.1 -
27/11:00pm 10.3 - - - - WNW 7 11 4 6 1032.1 1032.1 -
27/10:30pm 10.5 - - - - W 9 15 5 8 1032.2 1032.2 -
27/10:00pm 10.6 - - - - W 11 17 6 9 1032.1 1032.1 -
27/09:30pm 10.5 - - - - W 15 22 8 12 1032.0 1032.0 -
27/09:00pm 10.3 - - - - W 13 17 7 9 1031.9 1031.9 -
27/08:30pm 10.5 - - - - W 13 19 7 10 1031.9 1031.9 -
27/08:00pm 10.7 - - - - WSW 15 22 8 12 1031.9 1031.9 -
27/07:30pm 11.0 - - - - WSW 19 28 10 15 1031.8 1031.8 -
27/07:00pm 10.9 - - - - WSW 15 22 8 12 1031.6 1031.6 -
27/06:30pm 11.1 - - - - WSW 19 26 10 14 1031.4 1031.4 -
27/06:00pm 11.2 - - - - W 15 24 8 13 1031.1 1031.1 -
27/05:30pm 11.3 - - - - W 19 28 10 15 1030.9 1030.9 -
27/05:00pm 11.6 - - - - WSW 20 32 11 17 1030.6 1030.6 -
27/04:30pm 11.7 - - - - W 19 28 10 15 1030.4 1030.4 -
27/04:00pm 11.7 - - - - WSW 22 33 12 18 1030.4 1030.4 -
27/03:30pm 11.8 - - - - WSW 24 33 13 18 1030.2 1030.2 -
27/03:00pm 11.8 - - - - WSW 24 35 13 19 1029.8 1029.8 -
27/02:30pm 11.8 - - - - WSW 28 37 15 20 1029.6 1029.6 -
27/02:00pm 11.5 - - - - WSW 22 32 12 17 1029.5 1029.5 -
27/01:30pm 11.6 - - - - W 28 39 15 21 1029.4 1029.4 -
27/01:00pm 12.0 - - - - WSW 26 37 14 20 1029.4 1029.4 -
27/12:30pm 11.9 - - - - WSW 24 37 13 20 1029.7 1029.7 -
27/12:00pm 11.7 - - - - WSW 28 41 15 22 1029.9 1029.9 -
27/11:30am 11.5 - - - - WSW 20 32 11 17 1030.1 1030.1 -
27/11:00am 10.9 - - - - SW 24 37 13 20 1030.2 1030.2 -
27/10:30am 10.8 - - - - SW 32 46 17 25 1029.9 1029.9 -
27/10:00am 10.7 - - - - WSW 26 39 14 21 1029.6 1029.6 -
27/09:39am 9.8 - - - - WSW 28 44 15 24 1029.3 1029.3 -
27/09:30am 10.4 - - - - WSW 19 26 10 14 1029.2 1029.2 -
27/09:00am 9.5 - - - - SW 17 30 9 16 1028.8 1028.8 -
27/08:30am 9.8 - - - - SW 19 28 10 15 1028.5 1028.5 -
27/08:00am 10.0 - - - - WSW 17 24 9 13 1028.0 1028.0 -
27/07:30am 10.2 - - - - WSW 19 28 10 15 1027.7 1027.7 -
27/07:00am 9.6 - - - - W 15 20 8 11 1027.4 1027.4 -
27/06:30am 10.1 - - - - SW 26 37 14 20 1027.1 1027.1 -
27/06:00am 10.1 - - - - WSW 20 32 11 17 1026.8 1026.8 -
27/05:30am 9.9 - - - - WSW 19 30 10 16 1026.4 1026.4 -
27/05:00am 9.2 - - - - SW 20 35 11 19 1026.3 1026.3 -
27/04:47am 9.5 - - - - SW 28 48 15 26 1026.4 1026.4 -
27/04:30am 10.2 - - - - SW 20 32 11 17 1026.0 1026.0 -
27/04:00am 10.2 - - - - SW 24 35 13 19 1025.8 1025.8 -
27/03:30am 10.1 - - - - WSW 22 33 12 18 1025.5 1025.5 -
27/03:00am 9.5 - - - - SW 22 35 12 19 1025.6 1025.6 -
27/02:30am 9.8 - - - - SW 28 44 15 24 1025.4 1025.4 -
27/02:23am 9.9 - - - - SW 26 44 14 24 1025.2 1025.2 -
27/02:00am 8.9 - - - - W 17 24 9 13 1025.0 1025.0 -
27/01:30am 8.7 - - - - SW 19 32 10 17 1025.0 1025.0 -
27/01:00am 8.6 - - - - WSW 24 43 13 23 1024.8 1024.8 -
27/12:30am 8.5 - - - - WSW 17 20 9 11 1024.7 1024.7 -
27/12:00am 9.4 - - - - WSW 20 28 11 15 1024.2 1024.2 -
 
Date/Time
EST
Temp
°C
App
Temp
°C
Dew
Point
Rel
Hum
%
Delta-T
°C
Wind Press
QNH
hPa
Press
MSL
hPa
Rain
since 9 am
mm
Dir
 
Spd
km/h
Gust
km/h
Spd
kts
Gust
kts
26/11:30pm 9.6 - - - - SW 20 33 11 18 1024.0 1024.0 -
26/11:00pm 9.5 - - - - SW 19 32 10 17 1023.9 1023.9 -
26/10:30pm 9.1 - - - - SW 24 35 13 19 1023.7 1023.7 -
26/10:00pm 8.6 - - - - SW 20 30 11 16 1023.4 1023.4 -
26/09:42pm 8.3 - - - - SW 28 48 15 26 1023.4 1023.4 -
26/09:30pm 9.6 - - - - SW 19 30 10 16 1022.9 1022.9 -
26/09:00pm 9.2 - - - - SW 24 33 13 18 1022.6 1022.6 -
26/08:35pm 9.5 - - - - SSW 30 50 16 27 1022.3 1022.3 -
26/08:30pm 9.9 - - - - SW 22 37 12 20 1022.2 1022.2 -
26/08:00pm 9.4 - - - - SW 22 37 12 20 1021.6 1021.6 -
26/07:30pm 8.2 - - - - WSW 22 32 12 17 1021.1 1021.1 -
26/07:07pm 9.5 - - - - SW 33 56 18 30 1020.7 1020.7 -
26/07:00pm 9.7 - - - - SW 32 44 17 24 1020.6 1020.6 -
26/06:34pm 9.8 - - - - WSW 28 50 15 27 1020.0 1020.0 -
26/06:30pm 9.6 - - - - WSW 22 33 12 18 1019.8 1019.8 -
26/06:00pm 8.3 - - - - SW 32 50 17 27 1019.4 1019.4 -
26/05:30pm 8.4 - - - - WSW 33 56 18 30 1018.9 1018.9 -
26/05:25pm 9.4 - - - - WSW 28 56 15 30 1018.9 1018.9 -
26/05:00pm 9.3 - - - - WSW 30 44 16 24 1018.1 1018.1 -
26/04:50pm 9.7 - - - - WSW 30 54 16 29 1018.0 1018.0 -
26/04:30pm 8.7 - - - - W 20 32 11 17 1017.7 1017.7 -
26/04:20pm 8.1 - - - - WSW 28 41 15 22 1017.7 1017.7 -
26/04:04pm 8.1 - - - - SW 39 76 21 41 1017.9 1017.9 -
26/04:03pm 8.3 - - - - SW 37 76 20 41 1017.9 1017.9 -
26/04:01pm 10.0 - - - - WSW 32 76 17 41 1017.6 1017.6 -
26/04:00pm 10.4 - - - - WSW 30 44 16 24 1017.4 1017.4 -
26/03:30pm 9.5 - - - - WSW 30 43 16 23 1017.1 1017.1 -
26/03:00pm 8.3 - - - - WSW 41 65 22 35 1016.8 1016.8 -
26/02:30pm 10.0 - - - - WSW 33 54 18 29 1016.1 1016.1 -
26/02:00pm 9.6 - - - - SW 46 76 25 41 1015.6 1015.6 -
26/01:51pm 9.6 - - - - WSW 43 76 23 41 1015.5 1015.5 -
26/01:50pm 9.8 - - - - WSW 41 70 22 38 1015.4 1015.4 -
26/01:37pm 9.0 - - - - W 32 56 17 30 1014.9 1014.9 -
26/01:30pm 9.1 - - - - W 30 46 16 25 1014.9 1014.9 -
26/01:00pm 7.9 - - - - WSW 39 67 21 36 1014.9 1014.9 -
26/12:31pm 10.2 - - - - WSW 41 61 22 33 1014.4 1014.4 -
26/12:30pm 10.3 - - - - WSW 41 57 22 31 1014.4 1014.4 -
26/12:00pm 9.7 - - - - W 37 57 20 31 1014.3 1014.3 -
26/11:30am 9.4 - - - - WSW 39 63 21 34 1014.5 1014.5 -
26/11:00am 9.2 - - - - WSW 43 67 23 36 1014.2 1014.2 -
26/10:30am 10.0 - - - - WSW 39 57 21 31 1013.8 1013.8 -
26/10:00am 9.7 - - - - WSW 43 65 23 35 1013.2 1013.2 -
26/09:44am 9.8 - - - - W 28 56 15 30 1013.0 1013.0 -
26/09:30am 8.4 - - - - WSW 32 43 17 23 1012.8 1012.8 -
26/09:06am 9.3 - - - - WSW 37 57 20 31 1012.6 1012.6 -
26/09:00am 9.5 - - - - WSW 35 52 19 28 1012.2 1012.2 -
26/08:30am 9.4 - - - - WSW 41 65 22 35 1011.3 1011.3 -
26/08:00am 8.2 - - - - W 33 56 18 30 1010.8 1010.8 -
26/07:31am 8.5 - - - - WSW 39 57 21 31 1010.6 1010.6 -
26/07:30am 8.5 - - - - WSW 41 57 22 31 1010.3 1010.3 -
26/07:00am 9.2 - - - - WSW 37 57 20 31 1009.9 1009.9 -
26/06:32am 8.6 - - - - W 30 48 16 26 1009.3 1009.3 -
26/06:30am 8.6 - - - - W 32 48 17 26 1009.2 1009.2 -
26/06:00am 8.0 - - - - W 32 50 17 27 1008.9 1008.9 -
26/05:31am 8.1 - - - - W 30 72 16 39 1008.3 1008.3 -
26/05:30am 8.3 - - - - W 26 72 14 39 1008.4 1008.4 -
26/05:00am 9.1 - - - - W 32 61 17 33 1007.8 1007.8 -
26/04:50am 8.7 - - - - W 30 59 16 32 1007.8 1007.8 -
26/04:30am 7.1 - - - - W 19 28 10 15 1008.1 1008.1 -
26/04:00am 6.9 - - - - WSW 44 67 24 36 1008.4 1008.4 -
26/03:30am 8.4 - - - - W 30 52 16 28 1007.7 1007.7 -
26/03:17am 8.3 - - - - W 28 50 15 27 1007.6 1007.6 -
26/03:00am 7.8 - - - - W 30 44 16 24 1007.8 1007.8 -
26/02:40am 8.1 - - - - W 28 50 15 27 1007.8 1007.8 -
26/02:30am 7.7 - - - - W 26 41 14 22 1007.8 1007.8 -
26/02:00am 7.0 - - - - WSW 32 50 17 27 1007.9 1007.9 -
26/01:44am 7.3 - - - - WSW 37 74 20 40 1007.8 1007.8 -
26/01:38am 8.7 - - - - WSW 28 56 15 30 1007.5 1007.5 -
26/01:30am 8.9 - - - - WSW 26 41 14 22 1007.3 1007.3 -
26/01:00am 9.4 - - - - W 35 54 19 29 1007.2 1007.2 -
26/12:30am 8.9 - - - - WSW 39 65 21 35 1006.9 1006.9 -
26/12:00am 10.0 - - - - W 39 63 21 34 1006.6 1006.6 -
 
Date/Time
EST
Temp
°C
App
Temp
°C
Dew
Point
Rel
Hum
%
Delta-T
°C
Wind Press
QNH
hPa
Press
MSL
hPa
Rain
since 9 am
mm
Dir
 
Spd
km/h
Gust
km/h
Spd
kts
Gust
kts
25/11:34pm 9.4 - - - - W 30 48 16 26 1006.7 1006.7 -
25/11:30pm 9.3 - - - - W 33 48 18 26 1006.6 1006.6 -
25/11:01pm 10.5 - - - - W 32 57 17 31 1006.1 1006.1 -
25/11:00pm 10.5 - - - - W 32 48 17 26 1006.2 1006.2 -
25/10:30pm 11.3 - - - - W 33 54 18 29 1006.0 1006.0 -
25/10:26pm 11.2 - - - - W 32 54 17 29 1006.1 1006.1 -
25/10:00pm 10.3 - - - - W 30 48 16 26 1006.0 1006.0 -
25/09:38pm 11.0 - - - - W 32 52 17 28 1005.8 1005.8 -
25/09:30pm 10.7 - - - - W 30 48 16 26 1005.7 1005.7 -
25/09:11pm 10.2 - - - - WNW 28 48 15 26 1005.7 1005.7 -
25/09:00pm 10.3 - - - - WNW 22 37 12 20 1005.3 1005.3 -
25/08:30pm 9.7 - - - - WNW 37 59 20 32 1005.2 1005.2 -
25/08:00pm 10.5 - - - - WNW 32 54 17 29 1004.9 1004.9 -
25/07:40pm 10.6 - - - - WNW 30 48 16 26 1004.6 1004.6 -
25/07:30pm 10.7 - - - - WNW 35 52 19 28 1004.6 1004.6 -
25/07:00pm 10.7 - - - - NW 32 54 17 29 1003.8 1003.8 -
25/06:42pm 11.1 - - - - NNW 37 65 20 35 1003.8 1003.8 -
25/06:30pm 11.1 - - - - NNW 35 46 19 25 1003.4 1003.4 -
25/06:00pm 11.6 - - - - NNW 39 61 21 33 1003.4 1003.4 -
25/05:36pm 12.8 - - - - NNW 43 63 23 34 1003.3 1003.3 -
25/05:30pm 13.0 - - - - NNW 44 57 24 31 1003.2 1003.2 -
25/05:12pm 12.9 - - - - NNW 41 61 22 33 1003.2 1003.2 -
25/05:00pm 12.9 - - - - NNW 39 56 21 30 1003.6 1003.6 -
25/04:51pm 12.9 - - - - NNW 39 59 21 32 1003.7 1003.7 -
25/04:30pm 12.8 - - - - NNW 41 57 22 31 1004.4 1004.4 -
25/04:10pm 12.8 - - - - NNW 39 65 21 35 1004.8 1004.8 -
25/04:00pm 12.8 - - - - NNW 43 59 23 32 1005.0 1005.0 -
25/03:33pm 12.8 - - - - NNW 43 65 23 35 1005.4 1005.4 -

Other Formats:

Comma delimited format used in spreadsheet applications
http://www.bom.gov.au/fwo/IDV60801/IDV60801.95826.axf

JavaScript Object Notation format (JSON) in row-major order
http://www.bom.gov.au/fwo/IDV60801/IDV60801.95826.json